Time;durP1;ratioP1;P1;durP2;ratioP2;P2;SDS_P1;SDS_P2;PMS_P1;PMS_P2;Temp;Humidity;BMP_temperature;BMP_pressure;BME280_temperature;BME280_humidity;BME280_pressure;Samples;Min_cycle;Max_cycle;Signal;HPM_P1;HPM_P2
2023/06/21 00:01:43;;;;;;;4.70;3.58;;;21.40;75.90;;;;;;6057080;23;20011;-85
2023/06/21 00:04:08;;;;;;;2.83;2.60;;;21.50;75.90;;;;;;6050704;23;20032;-85
2023/06/21 00:06:37;;;;;;;3.40;3.10;;;21.50;76.50;;;;;;6036054;23;20018;-84
2023/06/21 00:09:05;;;;;;;5.22;2.90;;;21.40;75.70;;;;;;6036119;23;20097;-84
2023/06/21 00:11:31;;;;;;;4.13;2.95;;;21.50;77.70;;;;;;6012762;23;20042;-84
2023/06/21 00:13:56;;;;;;;2.50;2.25;;;21.90;76.20;;;;;;6060152;23;20015;-83
2023/06/21 00:16:22;;;;;;;3.83;3.17;;;21.80;77.80;;;;;;6035940;23;20019;-83
2023/06/21 00:18:48;;;;;;;4.22;2.85;;;21.60;77.20;;;;;;6035680;23;20098;-83
2023/06/21 00:21:14;;;;;;;4.20;2.80;;;21.30;76.30;;;;;;6035593;23;20049;-82
2023/06/21 00:23:41;;;;;;;2.58;2.38;;;21.40;77.60;;;;;;6027433;23;20404;-82
2023/06/21 00:26:07;;;;;;;3.38;3.00;;;21.20;76.20;;;;;;6011863;23;20011;-83
2023/06/21 00:28:32;;;;;;;2.60;2.40;;;21.20;78.40;;;;;;6035220;23;20445;-82
2023/06/21 00:30:58;;;;;;;3.55;2.78;;;21.20;78.20;;;;;;6034923;23;20561;-83
2023/06/21 00:33:23;;;;;;;4.82;2.80;;;20.90;76.70;;;;;;6058552;23;20029;-82
2023/06/21 00:35:49;;;;;;;2.70;2.50;;;21.00;78.10;;;;;;6036278;23;20086;-83
2023/06/21 00:38:15;;;;;;;4.03;3.15;;;21.10;78.30;;;;;;6050012;23;20026;-82
2023/06/21 00:40:40;;;;;;;3.35;3.05;;;21.10;77.50;;;;;;6012443;23;20010;-82
2023/06/21 00:43:06;;;;;;;4.28;3.60;;;21.10;78.50;;;;;;6035264;23;20018;-82
2023/06/21 00:45:39;;;;;;;4.13;3.10;;;21.00;78.50;;;;;;6034679;23;20007;-82
2023/06/21 00:48:05;;;;;;;3.92;3.08;;;20.90;79.50;;;;;;6059311;23;20019;-82
2023/06/21 00:50:31;;;;;;;2.75;2.53;;;21.00;80.00;;;;;;6059349;23;20049;-82
2023/06/21 00:52:56;;;;;;;3.20;2.90;;;21.10;78.70;;;;;;6035836;23;20019;-81
2023/06/21 00:55:23;;;;;;;3.42;3.13;;;21.00;79.50;;;;;;6034995;23;20064;-82
2023/06/21 00:57:49;;;;;;;3.67;3.03;;;20.80;78.50;;;;;;6036365;23;20015;-82
2023/06/21 01:00:20;;;;;;;4.35;2.63;;;20.80;79.70;;;;;;6059494;23;20015;-82
2023/06/21 01:02:47;;;;;;;4.20;3.00;;;20.70;80.10;;;;;;6059897;23;20018;-82
2023/06/21 01:05:15;;;;;;;4.03;3.63;;;20.80;79.90;;;;;;6011483;23;20015;-82
2023/06/21 01:08:12;;;;;;;3.22;2.92;;;20.70;78.90;;;;;;6012345;23;20484;-82
2023/06/21 01:10:43;;;;;;;4.53;3.40;;;20.40;79.30;;;;;;6058777;23;20019;-82
2023/06/21 01:13:25;;;;;;;4.95;3.28;;;20.40;80.40;;;;;;6035097;23;20566;-82
2023/06/21 01:16:07;;;;;;;4.78;3.53;;;20.20;80.60;;;;;;6059084;23;20071;-82
2023/06/21 01:18:32;;;;;;;5.25;4.03;;;20.10;81.80;;;;;;6035845;23;20107;-82
2023/06/21 01:20:58;;;;;;;3.13;2.83;;;20.00;80.10;;;;;;6059762;23;20642;-82
2023/06/21 01:23:59;;;;;;;3.33;2.85;;;19.90;79.70;;;;;;6035805;23;20354;-82
2023/06/21 01:26:43;;;;;;;3.95;2.60;;;20.20;80.50;;;;;;6003859;23;20016;-82
2023/06/21 01:29:12;;;;;;;3.83;3.40;;;20.20;80.90;;;;;;6053597;23;20015;-82
2023/06/21 01:31:42;;;;;;;3.05;2.72;;;20.30;80.20;;;;;;6057359;23;20003;-81
2023/06/21 01:34:08;;;;;;;6.22;3.30;;;20.30;80.60;;;;;;6058011;23;20371;-82
2023/06/21 01:36:34;;;;;;;3.13;2.83;;;20.30;81.50;;;;;;6033318;23;20006;-81
2023/06/21 01:39:00;;;;;;;4.30;3.35;;;20.40;81.00;;;;;;6033608;23;20114;-82
2023/06/21 01:41:26;;;;;;;5.25;3.42;;;20.50;81.20;;;;;;6056937;23;20011;-82
2023/06/21 01:43:52;;;;;;;3.95;3.55;;;20.30;81.40;;;;;;6057965;23;20311;-82
2023/06/21 01:46:18;;;;;;;5.25;3.90;;;20.10;81.30;;;;;;6056600;23;20467;-82
2023/06/21 01:48:44;;;;;;;4.15;3.45;;;20.10;81.50;;;;;;6056969;23;20015;-82
2023/06/21 01:51:09;;;;;;;4.20;3.40;;;20.20;81.10;;;;;;6033245;23;20015;-82
2023/06/21 01:53:35;;;;;;;4.97;4.32;;;20.00;82.40;;;;;;6056146;23;20026;-82
2023/06/21 01:56:03;;;;;;;4.25;3.08;;;19.90;84.10;;;;;;6057590;23;20023;-81
2023/06/21 01:58:28;;;;;;;5.18;3.13;;;19.90;82.00;;;;;;6057472;23;20018;-81
2023/06/21 02:00:55;;;;;;;4.85;4.35;;;20.00;83.50;;;;;;6033982;23;20011;-81
2023/06/21 02:03:21;;;;;;;4.65;3.72;;;19.90;83.40;;;;;;6009970;23;20014;-81
2023/06/21 02:05:47;;;;;;;4.78;3.97;;;19.90;83.30;;;;;;6057249;23;20403;-81
2023/06/21 02:08:15;;;;;;;5.82;3.75;;;19.70;82.70;;;;;;6056871;23;20023;-82
2023/06/21 02:10:51;;;;;;;4.53;3.90;;;19.60;82.10;;;;;;6045571;23;20380;-81
2023/06/21 02:13:16;;;;;;;3.58;3.22;;;19.80;83.10;;;;;;6022741;23;20033;-81
2023/06/21 02:15:42;;;;;;;8.55;5.20;;;20.00;82.60;;;;;;6057451;23;20453;-81
2023/06/21 02:18:09;;;;;;;7.07;3.67;;;19.70;85.80;;;;;;6033025;23;20553;-81
2023/06/21 02:20:35;;;;;;;4.80;3.20;;;19.50;85.00;;;;;;6010069;23;20022;-81
2023/06/21 02:23:00;;;;;;;3.38;3.08;;;19.40;83.70;;;;;;6033279;23;20083;-81
2023/06/21 02:25:27;;;;;;;4.43;4.03;;;19.40;83.80;;;;;;6057796;23;20064;-81
2023/06/21 02:27:52;;;;;;;4.85;3.95;;;19.40;84.90;;;;;;6033801;23;20015;-82
2023/06/21 02:30:18;;;;;;;7.18;4.80;;;19.40;85.10;;;;;;6033077;23;20021;-80
2023/06/21 02:32:43;;;;;;;4.75;3.53;;;19.40;89.70;;;;;;6032416;23;20071;-81
2023/06/21 02:35:09;;;;;;;6.97;4.30;;;19.40;86.40;;;;;;6056897;23;20093;-80
2023/06/21 02:37:35;;;;;;;5.90;3.95;;;19.10;84.20;;;;;;6056269;23;20015;-81
2023/06/21 02:40:09;;;;;;;4.38;3.75;;;19.10;84.90;;;;;;6042980;23;20094;-80
2023/06/21 02:42:35;;;;;;;3.80;3.50;;;19.10;84.80;;;;;;6000489;23;20510;-82
2023/06/21 02:45:00;;;;;;;5.90;5.28;;;19.10;85.40;;;;;;6057195;23;20018;-81
2023/06/21 02:47:26;;;;;;;8.10;5.43;;;18.90;85.50;;;;;;6032166;23;20473;-80
2023/06/21 02:49:52;;;;;;;6.38;5.05;;;19.10;90.20;;;;;;6057877;23;20039;-81
2023/06/21 02:52:17;;;;;;;6.45;4.75;;;19.00;87.80;;;;;;6057780;23;20035;-81
2023/06/21 02:54:43;;;;;;;4.68;4.28;;;19.00;87.00;;;;;;6057478;23;20014;-81
2023/06/21 02:57:09;;;;;;;4.93;3.67;;;19.00;89.80;;;;;;6020026;23;20042;-81
2023/06/21 02:59:35;;;;;;;3.80;3.00;;;19.00;89.80;;;;;;6057486;23;20442;-81
2023/06/21 03:02:01;;;;;;;4.00;3.60;;;19.20;88.60;;;;;;6056673;23;20710;-81
2023/06/21 03:04:27;;;;;;;5.38;4.50;;;19.50;89.40;;;;;;6057192;23;20070;-81
2023/06/21 03:06:52;;;;;;;3.95;3.55;;;19.40;90.60;;;;;;6057370;23;20723;-83
2023/06/21 03:09:18;;;;;;;4.45;3.20;;;19.50;90.20;;;;;;6057487;23;20034;-82
2023/06/21 03:11:45;;;;;;;5.90;4.43;;;19.50;90.10;;;;;;6056878;23;20642;-82
2023/06/21 03:14:11;;;;;;;8.45;4.65;;;19.50;90.40;;;;;;6056917;23;20034;-82
2023/06/21 03:16:36;;;;;;;3.50;3.20;;;19.50;90.90;;;;;;6056795;23;20007;-82
2023/06/21 03:19:02;;;;;;;5.15;3.20;;;19.50;90.80;;;;;;6032983;23;20093;-82
2023/06/21 03:21:27;;;;;;;3.83;3.40;;;19.50;90.60;;;;;;6056528;23;20470;-81
2023/06/21 03:23:53;;;;;;;3.50;3.08;;;19.60;91.10;;;;;;6025250;23;20015;-82
2023/06/21 03:26:19;;;;;;;4.90;3.90;;;19.20;91.00;;;;;;6009151;23;20013;-82
2023/06/21 03:28:44;;;;;;;3.80;3.40;;;19.40;91.80;;;;;;6033305;23;20105;-82
2023/06/21 03:31:10;;;;;;;4.32;3.45;;;19.40;91.90;;;;;;6058553;23;20015;-82
2023/06/21 03:33:36;;;;;;;6.28;4.18;;;19.50;91.90;;;;;;6058972;23;20011;-82
2023/06/21 03:36:03;;;;;;;4.78;3.67;;;19.40;92.60;;;;;;6035450;23;20029;-82
2023/06/21 03:38:29;;;;;;;7.75;5.07;;;19.40;92.30;;;;;;6035397;23;20062;-82
2023/06/21 03:40:54;;;;;;;5.13;3.88;;;19.30;92.00;;;;;;6035577;23;20015;-82
2023/06/21 03:43:20;;;;;;;4.15;3.42;;;19.20;92.20;;;;;;6034870;23;19999;-80
2023/06/21 03:45:46;;;;;;;5.45;3.92;;;19.10;92.40;;;;;;6033717;23;20070;-80
2023/06/21 03:48:11;;;;;;;6.13;4.97;;;19.30;92.60;;;;;;6034579;23;20046;-79
2023/06/21 03:50:37;;;;;;;8.05;4.47;;;19.30;92.70;;;;;;6034889;23;20098;-80
2023/06/21 03:53:03;;;;;;;6.93;5.03;;;19.30;92.80;;;;;;6034721;23;20101;-78
2023/06/21 03:55:29;;;;;;;6.20;4.25;;;19.40;93.40;;;;;;6033784;23;20018;-80
2023/06/21 03:57:54;;;;;;;6.93;5.55;;;19.30;93.30;;;;;;6034492;23;20038;-80
2023/06/21 04:00:20;;;;;;;7.15;6.05;;;19.20;94.00;;;;;;6031740;23;20146;-80
2023/06/21 04:02:46;;;;;;;6.40;4.35;;;19.10;94.90;;;;;;6058259;23;20353;-79
2023/06/21 04:05:11;;;;;;;8.90;5.82;;;19.30;93.80;;;;;;6034426;23;20014;-82
2023/06/21 04:07:38;;;;;;;7.10;5.22;;;19.30;93.80;;;;;;6020816;23;20015;-81
2023/06/21 04:10:03;;;;;;;4.57;3.95;;;19.30;95.20;;;;;;6058896;23;20022;-82
2023/06/21 04:12:30;;;;;;;6.15;5.55;;;19.40;93.80;;;;;;6010938;23;20442;-82
2023/06/21 04:14:57;;;;;;;5.50;4.45;;;19.70;94.40;;;;;;6034830;23;20015;-81
2023/06/21 04:17:22;;;;;;;5.10;3.85;;;19.60;93.70;;;;;;6034277;23;20015;-82
2023/06/21 04:19:48;;;;;;;9.60;5.47;;;19.90;93.60;;;;;;6058036;23;20019;-82
2023/06/21 04:22:14;;;;;;;6.13;4.85;;;19.90;95.70;;;;;;6057728;23;20361;-82
2023/06/21 04:24:40;;;;;;;7.15;3.97;;;19.90;94.40;;;;;;6034635;23;20495;-82
2023/06/21 04:27:06;;;;;;;8.25;6.10;;;20.00;93.80;;;;;;6058576;23;20066;-83
2023/06/21 04:29:34;;;;;;;11.20;6.32;;;20.10;94.30;;;;;;6034765;23;20018;-82
2023/06/21 04:31:59;;;;;;;5.88;4.63;;;20.10;95.70;;;;;;6034245;23;20453;-82
2023/06/21 04:34:27;;;;;;;8.05;4.63;;;20.50;93.50;;;;;;6034287;23;20066;-81
2023/06/21 04:36:53;;;;;;;11.45;6.35;;;20.40;93.70;;;;;;6034549;23;20013;-81
2023/06/21 04:39:20;;;;;;;7.25;6.18;;;20.50;93.60;;;;;;6044581;23;20086;-81
2023/06/21 04:41:46;;;;;;;4.80;3.65;;;20.80;93.00;;;;;;6058802;23;20010;-82
2023/06/21 04:44:12;;;;;;;7.10;3.58;;;20.80;92.10;;;;;;6057877;23;20389;-82
2023/06/21 04:46:38;;;;;;;6.03;3.60;;;20.90;92.30;;;;;;6058356;23;20027;-81
2023/06/21 04:49:04;;;;;;;4.13;3.45;;;20.90;92.20;;;;;;6057870;23;20442;-82
2023/06/21 04:51:30;;;;;;;5.10;4.15;;;21.00;92.10;;;;;;6033920;23;20038;-81
2023/06/21 04:53:58;;;;;;;6.65;4.22;;;21.10;92.50;;;;;;6034563;23;20011;-81
2023/06/21 04:56:28;;;;;;;6.05;4.00;;;21.20;92.00;;;;;;6034389;23;20081;-81
2023/06/21 04:58:54;;;;;;;10.38;6.38;;;21.30;92.60;;;;;;5998577;23;20018;-82
2023/06/21 05:01:20;;;;;;;5.28;4.55;;;21.30;93.10;;;;;;6033781;23;20018;-82
2023/06/21 05:03:48;;;;;;;5.97;4.65;;;21.40;93.00;;;;;;6058376;23;20039;-81
2023/06/21 05:06:14;;;;;;;5.57;5.05;;;21.50;92.60;;;;;;6057757;23;20300;-82
2023/06/21 05:08:43;;;;;;;7.32;4.10;;;21.60;92.30;;;;;;6033758;23;20018;-82
2023/06/21 05:11:08;;;;;;;6.65;4.40;;;21.80;92.00;;;;;;6023666;23;20038;-82
2023/06/21 05:13:36;;;;;;;8.88;5.13;;;21.70;92.00;;;;;;6058241;23;20331;-82
2023/06/21 05:16:02;;;;;;;4.28;3.70;;;21.90;91.90;;;;;;6033996;23;20022;-83
2023/06/21 05:18:27;;;;;;;5.57;4.82;;;22.20;92.00;;;;;;6033847;23;20023;-82
2023/06/21 05:20:53;;;;;;;5.55;4.60;;;22.30;91.60;;;;;;6056063;23;20022;-82
2023/06/21 05:23:18;;;;;;;7.35;4.53;;;22.40;91.90;;;;;;6056054;23;20054;-82
2023/06/21 05:25:44;;;;;;;6.25;5.65;;;22.60;91.50;;;;;;6055074;23;20403;-83
2023/06/21 05:28:10;;;;;;;7.47;4.10;;;22.60;92.00;;;;;;6031427;23;20086;-82
2023/06/21 05:30:35;;;;;;;5.88;3.78;;;22.60;91.20;;;;;;6031920;23;20021;-82
2023/06/21 05:33:01;;;;;;;5.45;4.75;;;22.70;91.50;;;;;;6053523;23;20018;-81
2023/06/21 05:35:26;;;;;;;6.55;4.70;;;22.80;92.30;;;;;;6056779;23;20019;-82
2023/06/21 05:37:53;;;;;;;7.32;4.55;;;23.10;91.70;;;;;;6031554;23;20484;-84
2023/06/21 05:40:19;;;;;;;5.90;5.05;;;23.50;91.10;;;;;;6029915;23;20019;-82
2023/06/21 05:42:45;;;;;;;5.55;4.75;;;23.30;90.60;;;;;;6031704;23;20109;-82
2023/06/21 05:45:11;;;;;;;7.05;5.47;;;23.50;90.90;;;;;;6032204;23;20102;-82
2023/06/21 05:47:36;;;;;;;6.20;4.97;;;23.90;91.00;;;;;;6055303;23;20176;-82
2023/06/21 05:50:03;;;;;;;9.15;5.05;;;23.70;90.40;;;;;;6054904;23;20021;-82
2023/06/21 05:52:29;;;;;;;5.03;4.45;;;23.80;91.20;;;;;;6032511;23;20011;-82
2023/06/21 05:54:54;;;;;;;5.53;4.63;;;24.30;90.40;;;;;;6054499;23;20015;-83
2023/06/21 05:57:20;;;;;;;10.65;5.28;;;24.30;89.00;;;;;;6031200;23;20074;-82
2023/06/21 05:59:46;;;;;;;6.28;4.60;;;24.40;90.00;;;;;;6031788;23;20011;-82
2023/06/21 06:02:12;;;;;;;8.32;5.75;;;24.90;90.10;;;;;;6055981;23;20015;-83
2023/06/21 06:04:38;;;;;;;9.85;5.90;;;24.70;91.10;;;;;;6031232;23;20014;-82
2023/06/21 06:07:03;;;;;;;6.35;5.38;;;24.90;90.10;;;;;;6055901;23;20077;-82
2023/06/21 06:09:29;;;;;;;5.65;5.00;;;25.40;91.00;;;;;;6008841;23;20108;-82
2023/06/21 06:11:56;;;;;;;11.18;6.05;;;25.50;91.50;;;;;;6008987;23;20017;-83
2023/06/21 06:14:22;;;;;;;7.75;5.53;;;25.60;91.70;;;;;;6055174;23;20466;-82
2023/06/21 06:16:48;;;;;;;6.78;5.20;;;25.70;90.80;;;;;;6029697;23;20449;-83
2023/06/21 06:19:13;;;;;;;7.60;5.82;;;25.70;89.80;;;;;;6054561;23;20019;-81
2023/06/21 06:21:42;;;;;;;8.25;6.30;;;25.40;87.20;;;;;;6053934;23;20090;-81
2023/06/21 06:24:08;;;;;;;7.00;5.40;;;25.60;87.70;;;;;;6054052;23;20021;-81
2023/06/21 06:26:33;;;;;;;6.55;5.90;;;25.40;87.80;;;;;;6054418;23;20089;-81
2023/06/21 06:28:59;;;;;;;7.93;6.00;;;25.80;90.60;;;;;;6032313;23;20026;-81
2023/06/21 06:31:25;;;;;;;9.65;6.05;;;25.90;86.80;;;;;;6054413;23;20010;-81
2023/06/21 06:33:51;;;;;;;9.48;5.13;;;26.20;89.50;;;;;;6021610;23;20097;-81
2023/06/21 06:36:17;;;;;;;6.97;5.45;;;26.40;89.00;;;;;;6005602;23;20113;-82
2023/06/21 06:38:46;;;;;;;7.28;5.57;;;26.50;86.90;;;;;;6034925;23;20010;-83
2023/06/21 06:41:12;;;;;;;8.60;7.03;;;26.50;85.10;;;;;;6027788;23;20011;-81
2023/06/21 06:43:43;;;;;;;8.75;6.93;;;26.60;90.00;;;;;;6052026;23;20064;-81
2023/06/21 06:46:08;;;;;;;8.35;5.65;;;26.60;89.20;;;;;;6031489;23;20025;-81
2023/06/21 06:48:34;;;;;;;11.25;7.13;;;26.60;86.90;;;;;;6033899;23;20006;-82
2023/06/21 06:51:00;;;;;;;8.13;6.88;;;26.40;84.30;;;;;;6044647;23;20086;-82
2023/06/21 06:53:25;;;;;;;8.57;6.20;;;25.70;86.00;;;;;;5983149;23;20501;-82
2023/06/21 06:55:59;;;;;;;11.90;6.13;;;25.70;86.00;;;;;;6038618;23;20015;-83
2023/06/21 06:58:28;;;;;;;7.10;5.80;;;26.00;88.60;;;;;;5973162;23;20046;-83
2023/06/21 07:00:54;;;;;;;8.98;6.50;;;26.20;84.90;;;;;;5984250;23;20070;-81
2023/06/21 07:03:20;;;;;;;8.32;6.72;;;25.90;86.20;;;;;;6029516;23;20023;-80
2023/06/21 07:05:46;;;;;;;7.63;6.13;;;26.20;85.80;;;;;;6031985;23;20015;-80
2023/06/21 07:08:12;;;;;;;9.38;6.47;;;26.40;84.30;;;;;;6056887;23;20023;-80
2023/06/21 07:10:40;;;;;;;11.07;6.50;;;26.40;84.60;;;;;;6057195;23;20382;-80
2023/06/21 07:13:06;;;;;;;9.23;6.70;;;26.40;83.80;;;;;;6033061;23;20018;-80
2023/06/21 07:15:32;;;;;;;9.98;7.93;;;26.80;87.00;;;;;;6032564;23;20070;-80
2023/06/21 07:17:57;;;;;;;16.30;6.88;;;27.30;86.00;;;;;;6032660;23;20022;-80
2023/06/21 07:20:23;;;;;;;7.47;6.55;;;27.50;83.50;;;;;;6032409;23;20440;-80
2023/06/21 07:22:48;;;;;;;6.88;5.60;;;27.40;80.60;;;;;;6032389;23;20021;-80
2023/06/21 07:25:17;;;;;;;6.40;5.32;;;28.00;83.80;;;;;;6032697;23;20102;-80
2023/06/21 07:27:43;;;;;;;6.45;5.85;;;28.50;83.80;;;;;;6056941;23;20450;-80
2023/06/21 07:30:09;;;;;;;8.75;6.30;;;28.90;82.60;;;;;;6057049;23;20150;-80
2023/06/21 07:32:35;;;;;;;8.10;6.30;;;29.10;80.30;;;;;;6031921;23;20037;-81
2023/06/21 07:35:01;;;;;;;8.88;7.18;;;29.30;78.40;;;;;;6032001;23;20478;-80
2023/06/21 07:37:27;;;;;;;11.15;6.32;;;29.40;79.10;;;;;;6032455;23;20450;-80
2023/06/21 07:39:54;;;;;;;7.07;6.40;;;29.70;80.70;;;;;;6054556;23;20046;-80
2023/06/21 07:42:19;;;;;;;6.30;5.70;;;30.10;78.60;;;;;;6055293;23;20022;-81
2023/06/21 07:44:45;;;;;;;10.23;6.38;;;29.50;75.20;;;;;;6031628;23;20011;-80
2023/06/21 07:47:11;;;;;;;6.72;5.88;;;29.80;79.00;;;;;;6053047;23;20416;-80
2023/06/21 07:49:36;;;;;;;6.07;5.43;;;30.20;77.60;;;;;;6055076;23;20357;-80
2023/06/21 07:52:02;;;;;;;9.27;6.20;;;30.40;75.10;;;;;;6029780;23;20015;-83
2023/06/21 07:54:28;;;;;;;9.45;6.20;;;30.10;72.60;;;;;;6056354;23;21443;-84
2023/06/21 07:56:53;;;;;;;8.90;7.25;;;29.90;75.10;;;;;;6055314;23;20028;-84
2023/06/21 07:59:20;;;;;;;8.48;5.45;;;30.50;75.70;;;;;;6029468;23;20019;-84
2023/06/21 08:01:45;;;;;;;7.43;6.25;;;30.80;74.70;;;;;;6030924;23;20400;-84
2023/06/21 08:04:11;;;;;;;10.07;7.32;;;31.00;72.30;;;;;;6031413;23;20046;-83
2023/06/21 08:06:37;;;;;;;7.30;5.95;;;31.00;73.40;;;;;;6032084;23;20398;-82
2023/06/21 08:09:03;;;;;;;11.20;7.05;;;31.00;72.40;;;;;;6054561;23;20019;-83
2023/06/21 08:11:28;;;;;;;6.35;5.72;;;31.20;72.50;;;;;;6052542;23;20792;-83
2023/06/21 08:13:55;;;;;;;9.25;6.63;;;31.20;73.20;;;;;;6053965;23;20011;-83
2023/06/21 08:16:21;;;;;;;9.30;6.00;;;31.30;71.10;;;;;;6030560;23;20098;-83
2023/06/21 08:18:46;;;;;;;7.05;5.78;;;31.50;70.20;;;;;;6056113;23;20056;-82
2023/06/21 08:21:12;;;;;;;8.00;5.25;;;31.00;68.20;;;;;;6054961;23;20018;-82
2023/06/21 08:23:38;;;;;;;8.35;5.93;;;31.20;69.50;;;;;;6033016;23;20039;-81
2023/06/21 08:26:03;;;;;;;8.20;5.88;;;31.20;67.50;;;;;;6055630;23;20003;-83
2023/06/21 08:28:30;;;;;;;6.18;5.55;;;30.90;71.10;;;;;;6032319;23;20106;-81
2023/06/21 08:30:56;;;;;;;7.60;6.30;;;31.40;69.20;;;;;;6056466;23;20365;-80
2023/06/21 08:33:22;;;;;;;8.50;6.43;;;32.10;67.80;;;;;;6055344;23;20090;-83
2023/06/21 08:35:47;;;;;;;7.40;6.15;;;32.40;67.40;;;;;;6045892;23;20019;-80
2023/06/21 08:38:13;;;;;;;7.50;5.90;;;31.60;65.20;;;;;;6008236;23;20097;-81
2023/06/21 08:40:38;;;;;;;7.72;6.93;;;32.10;65.70;;;;;;6056291;23;20046;-81
2023/06/21 08:43:04;;;;;;;9.50;5.13;;;32.60;66.20;;;;;;6032655;23;20042;-82
2023/06/21 08:45:30;;;;;;;5.72;5.22;;;33.10;65.80;;;;;;6031725;23;20090;-82
2023/06/21 08:48:05;;;;;;;6.47;5.03;;;33.30;64.50;;;;;;6018217;23;20418;-82
2023/06/21 08:50:36;;;;;;;5.53;5.03;;;33.20;62.90;;;;;;6032274;23;20023;-83
2023/06/21 08:53:04;;;;;;;7.60;5.78;;;33.20;62.40;;;;;;6056679;23;20015;-82
2023/06/21 08:55:30;;;;;;;6.95;5.28;;;32.80;64.20;;;;;;6055248;23;20019;-81
2023/06/21 08:57:59;;;;;;;9.60;5.88;;;32.80;62.20;;;;;;6055938;23;20093;-81
2023/06/21 09:00:31;;;;;;;10.88;7.47;;;32.80;64.50;;;;;;6055237;23;20018;-82
2023/06/21 09:03:17;;;;;;;7.32;5.63;;;33.30;62.70;;;;;;6055928;23;20449;-82
2023/06/21 09:05:53;;;;;;;8.20;6.80;;;33.20;62.90;;;;;;6031458;23;20015;-82
2023/06/21 09:08:19;;;;;;;5.80;5.30;;;33.10;60.30;;;;;;6033784;23;20335;-82
2023/06/21 09:10:46;;;;;;;7.25;6.55;;;33.40;62.70;;;;;;6031227;23;20090;-82
2023/06/21 09:13:12;;;;;;;6.25;4.63;;;33.70;60.40;;;;;;6056334;23;20037;-82
2023/06/21 09:15:37;;;;;;;5.80;5.20;;;34.20;60.70;;;;;;6008344;23;20450;-82
2023/06/21 09:18:03;;;;;;;5.40;4.80;;;34.00;60.10;;;;;;6055833;23;20027;-84
2023/06/21 09:20:29;;;;;;;5.50;5.00;;;34.40;60.70;;;;;;6055041;23;20034;-82
2023/06/21 09:22:58;;;;;;;6.32;4.82;;;34.30;57.90;;;;;;6032332;23;20012;-81
2023/06/21 09:25:24;;;;;;;6.10;5.03;;;34.50;58.40;;;;;;6032052;23;20074;-83
2023/06/21 09:27:50;;;;;;;5.13;4.70;;;34.70;59.60;;;;;;6031091;23;20025;-81
2023/06/21 09:30:15;;;;;;;4.72;4.32;;;35.00;58.70;;;;;;6055653;23;20037;-81
2023/06/21 09:32:44;;;;;;;4.57;4.03;;;35.30;57.80;;;;;;6033995;23;20014;-82
2023/06/21 09:35:10;;;;;;;6.93;4.25;;;35.10;57.30;;;;;;6008801;23;20018;-81
2023/06/21 09:37:37;;;;;;;4.82;4.30;;;35.00;57.10;;;;;;6055332;23;20325;-82
2023/06/21 09:40:05;;;;;;;5.82;5.18;;;34.80;56.80;;;;;;6055973;23;20071;-81
2023/06/21 09:42:32;;;;;;;5.68;4.90;;;34.70;56.70;;;;;;6055861;23;20007;-81
2023/06/21 09:44:57;;;;;;;5.88;4.18;;;34.80;57.30;;;;;;6055283;23;20466;-79
2023/06/21 09:47:28;;;;;;;8.68;5.53;;;35.10;56.90;;;;;;6055148;23;20030;-80
2023/06/21 09:49:54;;;;;;;5.38;4.18;;;35.20;55.80;;;;;;6033175;23;20019;-80
2023/06/21 09:52:21;;;;;;;5.72;4.40;;;35.20;56.60;;;;;;6031558;23;20017;-80
2023/06/21 09:54:47;;;;;;;6.72;5.35;;;34.90;55.60;;;;;;6054888;23;20457;-79
2023/06/21 09:57:13;;;;;;;5.50;5.00;;;35.10;56.20;;;;;;6054741;23;20025;-80
2023/06/21 09:59:39;;;;;;;5.00;4.43;;;35.40;56.00;;;;;;6032643;23;20516;-81
2023/06/21 10:02:08;;;;;;;7.30;5.57;;;35.60;54.30;;;;;;6054960;23;20011;-80
2023/06/21 10:04:40;;;;;;;5.60;5.00;;;36.00;55.50;;;;;;6055457;23;20085;-80
2023/06/21 10:07:06;;;;;;;7.88;5.82;;;36.30;54.10;;;;;;6054082;23;20018;-79
2023/06/21 10:09:41;;;;;;;10.40;5.55;;;36.20;54.00;;;;;;6054760;23;20026;-82
2023/06/21 10:12:10;;;;;;;5.13;4.72;;;35.90;53.60;;;;;;6055426;23;20623;-82
2023/06/21 10:14:36;;;;;;;5.05;4.43;;;35.90;53.70;;;;;;6031132;23;20481;-81
2023/06/21 10:17:04;;;;;;;6.78;5.20;;;36.00;53.80;;;;;;6031571;23;20015;-82
2023/06/21 10:19:30;;;;;;;4.95;4.45;;;36.00;53.70;;;;;;6054448;23;20030;-82
2023/06/21 10:22:04;;;;;;;5.07;4.60;;;36.20;53.60;;;;;;6030735;23;20014;-81
2023/06/21 10:24:42;;;;;;;7.30;4.78;;;36.00;53.10;;;;;;6032183;23;20022;-82
2023/06/21 10:27:10;;;;;;;6.47;4.53;;;36.10;53.30;;;;;;6055633;23;20415;-82
2023/06/21 10:29:35;;;;;;;5.30;4.88;;;36.10;53.20;;;;;;6031765;23;20442;-82
2023/06/21 10:32:01;;;;;;;5.53;5.03;;;35.90;52.70;;;;;;6031435;23;20037;-82
2023/06/21 10:34:29;;;;;;;6.13;4.82;;;35.50;52.90;;;;;;6031080;23;20011;-80
2023/06/21 10:37:02;;;;;;;4.88;4.15;;;35.60;52.80;;;;;;6054752;23;20015;-82
2023/06/21 10:39:28;;;;;;;6.90;5.10;;;35.70;52.30;;;;;;6055276;23;20014;-82
2023/06/21 10:41:53;;;;;;;6.78;4.88;;;35.60;51.50;;;;;;6055439;23;20078;-82
2023/06/21 10:44:19;;;;;;;5.10;4.55;;;35.70;52.30;;;;;;6055572;23;20009;-83
2023/06/21 10:46:45;;;;;;;7.78;4.22;;;36.00;52.10;;;;;;6054746;23;20461;-81
2023/06/21 10:49:10;;;;;;;5.47;4.85;;;36.20;51.40;;;;;;6032225;23;20014;-82
2023/06/21 10:51:36;;;;;;;5.82;4.00;;;36.30;51.10;;;;;;6031127;23;20441;-82
2023/06/21 10:54:02;;;;;;;4.07;3.78;;;36.30;51.00;;;;;;6053406;23;20078;-83
2023/06/21 10:56:29;;;;;;;5.30;4.80;;;36.40;51.10;;;;;;6006875;23;20006;-83
2023/06/21 10:58:54;;;;;;;7.05;5.40;;;36.40;51.40;;;;;;6018876;23;20097;-83
2023/06/21 11:01:20;;;;;;;6.85;6.05;;;36.60;51.40;;;;;;6030941;23;20110;-81
2023/06/21 11:03:46;;;;;;;7.07;5.07;;;37.20;50.60;;;;;;6055146;23;20017;-82
2023/06/21 11:06:22;;;;;;;6.97;5.50;;;37.40;49.70;;;;;;6056240;23;20459;-81
2023/06/21 11:08:48;;;;;;;10.00;6.53;;;37.20;50.30;;;;;;6031122;23;20015;-83
2023/06/21 11:11:36;;;;;;;6.00;5.50;;;37.20;49.40;;;;;;6032737;23;20021;-82
2023/06/21 11:14:04;;;;;;;5.20;4.80;;;37.10;49.80;;;;;;6056743;23;20110;-82
2023/06/21 11:16:32;;;;;;;6.47;4.97;;;37.00;49.40;;;;;;6054494;23;20018;-83
2023/06/21 11:19:02;;;;;;;5.00;4.60;;;37.10;49.60;;;;;;6031300;23;20015;-83
2023/06/21 11:21:46;;;;;;;8.93;5.40;;;37.00;49.80;;;;;;6054688;23;20477;-83
2023/06/21 11:24:16;;;;;;;8.40;4.93;;;37.20;48.70;;;;;;6031838;23;20007;-83
2023/06/21 11:27:01;;;;;;;7.80;4.72;;;37.50;49.00;;;;;;6031576;23;20451;-82
2023/06/21 11:29:36;;;;;;;;;;;37.40;48.20;;;;;;6008880;23;20003;-81
2023/06/21 11:32:09;;;;;;;6.65;6.00;;;37.60;48.20;;;;;;6055415;23;20277;-82
2023/06/21 11:34:34;;;;;;;5.65;5.13;;;37.80;47.50;;;;;;6054921;23;20425;-82
2023/06/21 11:37:40;;;;;;;4.72;4.30;;;37.70;47.90;;;;;;6030838;23;20019;-82
2023/06/21 11:40:15;;;;;;;6.53;5.00;;;37.80;48.50;;;;;;6055892;23;20461;-82
2023/06/21 11:42:49;;;;;;;5.55;5.00;;;37.60;46.90;;;;;;6054776;23;20534;-82
2023/06/21 11:45:27;;;;;;;5.60;4.63;;;37.60;46.40;;;;;;6031683;23;20014;-82
2023/06/21 11:48:10;;;;;;;7.28;4.50;;;37.60;47.20;;;;;;6007898;23;20104;-82
2023/06/21 11:50:45;;;;;;;6.00;2.45;;;37.60;47.40;;;;;;6055641;23;20018;-83
2023/06/21 11:53:20;;;;;;;4.75;4.05;;;37.70;46.70;;;;;;6032116;23;20007;-82
2023/06/21 11:55:49;;;;;;;5.22;4.72;;;37.70;46.80;;;;;;6034515;23;20191;-83
2023/06/21 11:58:15;;;;;;;4.82;4.07;;;38.00;47.00;;;;;;6057262;23;20017;-83
2023/06/21 12:00:41;;;;;;;10.40;5.00;;;38.10;47.10;;;;;;6032908;23;20398;-83
2023/06/21 12:03:06;;;;;;;9.48;5.05;;;38.10;46.40;;;;;;6033480;23;20026;-84
2023/06/21 12:05:57;;;;;;;4.68;4.30;;;38.00;45.70;;;;;;6056980;23;20010;-82
2023/06/21 12:08:27;;;;;;;6.15;4.28;;;38.10;46.60;;;;;;6032211;23;20168;-81
2023/06/21 12:10:53;;;;;;;4.88;4.45;;;38.10;46.20;;;;;;6032151;23;20328;-82
2023/06/21 12:13:19;;;;;;;5.10;4.60;;;38.10;46.60;;;;;;6056477;23;20094;-81
2023/06/21 12:16:05;;;;;;;4.60;4.20;;;38.30;46.60;;;;;;6057735;23;20069;-81
2023/06/21 12:18:32;;;;;;;4.72;4.32;;;38.30;46.40;;;;;;6054439;23;20021;-82
2023/06/21 12:21:02;;;;;;;4.35;3.95;;;38.40;46.20;;;;;;6056726;23;20079;-82
2023/06/21 12:23:30;;;;;;;4.70;4.22;;;38.40;45.20;;;;;;6033860;23;20102;-81
2023/06/21 12:25:57;;;;;;;4.22;3.72;;;38.40;44.70;;;;;;6057587;23;20018;-82
2023/06/21 12:28:23;;;;;;;4.10;3.80;;;38.30;46.20;;;;;;6033507;23;20390;-82
2023/06/21 12:30:55;;;;;;;4.30;3.75;;;38.20;45.90;;;;;;6009644;23;20034;-83
2023/06/21 12:33:48;;;;;;;4.30;3.90;;;38.30;45.50;;;;;;6057390;23;20086;-84
2023/06/21 12:36:18;;;;;;;3.33;3.13;;;38.40;45.10;;;;;;6054763;23;20027;-85
2023/06/21 12:38:55;;;;;;;3.88;3.58;;;38.50;45.20;;;;;;6057669;23;20074;-85
2023/06/21 12:41:21;;;;;;;5.00;4.18;;;38.70;44.40;;;;;;6056170;23;20412;-84
2023/06/21 12:43:48;;;;;;;4.80;3.35;;;38.70;44.60;;;;;;6034288;23;20450;-85
2023/06/21 12:46:14;;;;;;;6.07;3.50;;;38.90;44.90;;;;;;6033179;23;20483;-84
2023/06/21 12:48:53;;;;;;;4.30;3.90;;;39.00;44.50;;;;;;6031582;23;20098;-85